createdAt,value
2018-06-07T13:10:29.138Z,17.63
2018-06-07T13:12:58.696Z,21.60
2018-06-07T13:15:27.762Z,17.40
2018-06-07T13:17:56.467Z,20.33
2018-06-07T13:20:26.931Z,20.37
2018-06-07T13:23:00.090Z,18.57
2018-06-07T13:25:30.173Z,20.30
2018-06-07T13:27:59.384Z,16.17
2018-06-07T13:30:28.523Z,22.90
2018-06-07T13:32:57.581Z,19.07
2018-06-07T13:35:26.453Z,18.47
2018-06-07T13:37:55.679Z,20.50
2018-06-07T13:40:24.737Z,16.90
2018-06-07T13:42:54.856Z,19.10
2018-06-07T13:45:24.298Z,17.00
2018-06-07T13:47:54.566Z,17.70
2018-06-07T13:50:23.606Z,18.53
2018-06-07T13:52:52.410Z,20.40
2018-06-07T13:55:37.330Z,20.97
2018-06-07T13:58:07.752Z,19.20
2018-06-07T14:00:36.919Z,18.27
2018-06-07T14:03:06.254Z,20.30
2018-06-07T14:05:35.427Z,17.43
2018-06-07T14:08:05.782Z,20.47
2018-06-07T14:10:35.141Z,18.40
2018-06-07T14:13:04.066Z,19.60
2018-06-07T14:15:50.676Z,20.00
2018-06-07T14:18:19.694Z,16.13
2018-06-07T14:20:48.661Z,16.87
2018-06-07T14:23:17.258Z,18.87
2018-06-07T14:25:45.749Z,16.60
2018-06-07T14:28:14.250Z,14.30
2018-06-07T14:30:43.886Z,18.23
2018-06-07T14:33:12.711Z,14.70
2018-06-07T14:35:41.379Z,17.97
2018-06-07T14:38:10.014Z,14.13
2018-06-07T14:40:38.618Z,18.07
2018-06-07T14:43:07.209Z,17.60
2018-06-07T14:45:35.826Z,18.47
2018-06-07T14:48:04.530Z,19.43
2018-06-07T14:50:33.098Z,13.33
2018-06-07T14:53:01.344Z,14.90
2018-06-07T14:55:29.954Z,14.63
2018-06-07T14:57:58.505Z,12.90
2018-06-07T15:00:27.086Z,17.03
2018-06-07T15:02:56.088Z,15.47
2018-06-07T15:05:25.582Z,24.57
2018-06-07T15:07:54.237Z,15.20
2018-06-07T15:10:23.078Z,15.57
2018-06-07T15:12:51.690Z,15.53
2018-06-07T15:15:20.332Z,16.90
2018-06-07T15:17:49.016Z,15.53
2018-06-07T15:20:17.721Z,15.27
2018-06-07T15:22:46.362Z,15.00
2018-06-07T15:25:15.023Z,16.43
2018-06-07T15:27:43.501Z,14.90
2018-06-07T15:30:12.095Z,16.07
2018-06-07T15:32:40.610Z,13.90
2018-06-07T15:35:09.278Z,14.13
2018-06-07T15:37:37.998Z,17.03
2018-06-07T15:40:06.593Z,17.67
2018-06-07T15:42:35.128Z,14.00
2018-06-07T15:45:03.666Z,13.90
2018-06-07T15:47:32.178Z,17.30
2018-06-07T15:50:00.438Z,16.60
2018-06-07T15:52:28.650Z,14.80
2018-06-07T15:54:57.194Z,14.90
2018-06-07T15:57:25.788Z,14.33
2018-06-07T15:59:54.373Z,16.30
2018-06-07T16:02:30.407Z,12.30
2018-06-07T16:04:59.197Z,14.70
2018-06-07T16:07:28.546Z,14.50
2018-06-07T16:09:57.250Z,15.13
2018-06-07T16:12:26.282Z,14.47
2018-06-07T16:14:55.188Z,15.80
2018-06-07T16:17:24.056Z,16.97
2018-06-07T16:19:53.868Z,12.90
2018-06-07T16:22:22.832Z,13.00
2018-06-07T16:24:51.659Z,15.63
2018-06-07T16:27:20.583Z,13.50
2018-06-07T16:29:49.519Z,13.20
2018-06-07T16:32:18.343Z,14.80
2018-06-07T16:34:47.212Z,12.70
2018-06-07T16:37:16.042Z,18.83
2018-06-07T16:39:44.860Z,15.43
2018-06-07T16:42:13.674Z,20.50
2018-06-07T16:44:43.236Z,18.17
2018-06-07T16:47:12.259Z,13.37
2018-06-07T16:49:42.268Z,15.53
2018-06-07T16:52:11.770Z,15.90
2018-06-07T16:54:40.612Z,12.90
2018-06-07T16:57:09.802Z,14.80
2018-06-07T16:59:38.763Z,14.37
2018-06-07T17:02:07.728Z,13.57
2018-06-07T17:04:36.741Z,12.80
2018-06-07T17:07:05.796Z,12.83
2018-06-07T17:09:34.640Z,16.27
2018-06-07T17:12:03.516Z,12.90
2018-06-07T17:14:32.403Z,12.93
2018-06-07T17:17:00.846Z,15.13
2018-06-07T17:19:29.759Z,13.53
2018-06-07T17:21:58.726Z,15.43
2018-06-07T17:24:27.637Z,16.00
2018-06-07T17:26:56.691Z,15.23
2018-06-07T17:29:25.707Z,14.60
2018-06-07T17:31:54.599Z,19.47
2018-06-07T17:34:25.614Z,15.93
2018-06-07T17:36:54.559Z,14.80
2018-06-07T17:39:26.978Z,15.73
2018-06-07T17:41:56.424Z,16.20
2018-06-07T17:44:25.284Z,11.87
2018-06-07T17:46:54.297Z,13.37
2018-06-07T17:49:24.215Z,12.40
2018-06-07T17:51:53.026Z,9.50
2018-06-07T17:54:21.831Z,10.50
2018-06-07T17:56:50.878Z,9.90
2018-06-07T17:59:19.798Z,7.97
2018-06-07T18:01:48.588Z,11.00
2018-06-07T18:04:17.407Z,13.17
2018-06-07T18:06:46.188Z,15.60
2018-06-07T18:09:15.389Z,12.13
2018-06-07T18:11:44.114Z,47.80
2018-06-07T18:14:13.242Z,34.83
2018-06-07T18:16:43.056Z,44.80
2018-06-07T18:19:14.889Z,21.60
2018-06-07T18:21:54.666Z,28.67
2018-06-07T18:24:26.155Z,20.73
2018-06-07T18:26:55.287Z,19.90
2018-06-07T18:29:54.165Z,15.53
2018-06-07T18:32:24.107Z,18.53
2018-06-07T18:34:53.066Z,23.73
2018-06-07T18:37:22.087Z,27.00
2018-06-07T18:39:51.089Z,28.60
2018-06-07T18:42:19.972Z,22.57
2018-06-07T18:44:49.322Z,17.17
2018-06-07T18:47:18.229Z,21.50
2018-06-07T18:49:47.860Z,23.87
2018-06-07T18:52:19.405Z,22.47
2018-06-07T18:54:48.583Z,17.10
2018-06-07T18:57:32.096Z,16.10
2018-06-07T19:00:13.567Z,21.60
2018-06-07T19:02:54.718Z,23.70
2018-06-07T19:05:42.095Z,23.13
2018-06-07T19:08:33.055Z,20.33
2018-06-07T19:11:12.797Z,24.70
2018-06-07T19:14:01.099Z,21.60
2018-06-07T19:16:36.640Z,29.00
2018-06-07T19:19:10.724Z,23.47
2018-06-07T19:21:39.718Z,20.37
2018-06-07T19:24:08.514Z,15.07
2018-06-07T19:26:42.781Z,14.27
2018-06-07T19:29:11.591Z,11.30
2018-06-07T19:31:44.501Z,11.90
2018-06-07T19:34:18.534Z,14.73
2018-06-07T19:36:47.298Z,14.63
2018-06-07T19:40:19.877Z,16.13
2018-06-07T19:42:48.682Z,18.77
2018-06-07T19:45:19.705Z,24.13
2018-06-07T19:47:48.506Z,29.40
2018-06-07T19:50:20.136Z,29.23
2018-06-07T19:52:49.078Z,25.70
2018-06-07T19:55:18.147Z,27.57
2018-06-07T19:57:48.267Z,27.50
2018-06-07T20:00:17.088Z,25.60
2018-06-07T20:02:45.819Z,24.70
2018-06-07T20:05:14.516Z,24.97
2018-06-07T20:07:43.112Z,23.93
2018-06-07T20:10:11.818Z,31.77
2018-06-07T20:12:40.479Z,24.50
2018-06-07T20:15:09.114Z,23.33
2018-06-07T20:17:37.895Z,27.30
2018-06-07T20:20:07.644Z,21.73
2018-06-07T20:22:36.721Z,29.10
2018-06-07T20:25:05.354Z,27.80
2018-06-07T20:27:34.030Z,24.97
2018-06-07T20:30:06.088Z,28.13
2018-06-07T20:32:42.979Z,31.60
2018-06-07T20:35:11.637Z,35.40
2018-06-07T20:37:40.185Z,34.60
2018-06-07T20:40:08.701Z,32.80
2018-06-07T20:42:36.968Z,29.63
2018-06-07T20:45:05.891Z,32.77
2018-06-07T20:47:34.533Z,38.97
2018-06-07T20:50:03.181Z,36.67
2018-06-07T20:52:31.944Z,35.80
2018-06-07T20:55:00.461Z,33.60
2018-06-07T20:57:29.148Z,27.73
2018-06-07T20:59:57.933Z,32.47
2018-06-07T21:02:26.700Z,29.93
2018-06-07T21:04:55.554Z,30.83
2018-06-07T21:07:24.879Z,29.50
2018-06-07T21:09:53.701Z,25.00
2018-06-07T21:12:22.526Z,26.27
2018-06-07T21:14:51.239Z,25.97
2018-06-07T21:17:19.977Z,28.37
2018-06-07T21:19:48.730Z,23.27
2018-06-07T21:22:17.534Z,25.47
2018-06-07T21:24:46.313Z,24.10
2018-06-07T21:27:15.065Z,20.50
2018-06-07T21:29:43.795Z,18.40
2018-06-07T21:32:12.458Z,18.37
2018-06-07T21:34:41.099Z,17.90
2018-06-07T21:37:09.895Z,24.53
2018-06-07T21:39:38.728Z,16.70
2018-06-07T21:42:07.517Z,15.30
2018-06-07T21:44:36.174Z,19.10
2018-06-07T21:47:04.920Z,21.63
2018-06-07T21:49:37.371Z,22.33
2018-06-07T21:52:05.772Z,20.03
2018-06-07T21:54:34.461Z,22.30
2018-06-07T21:57:03.476Z,21.03
2018-06-07T21:59:32.326Z,16.33
2018-06-07T22:02:01.076Z,16.67
2018-06-07T22:04:29.758Z,16.50
2018-06-07T22:06:58.482Z,18.53
2018-06-07T22:09:26.825Z,16.67
2018-06-07T22:11:55.513Z,15.83
2018-06-07T22:14:24.224Z,20.13
2018-06-07T22:16:52.484Z,16.70
2018-06-07T22:19:21.126Z,19.90
2018-06-07T22:21:49.911Z,17.60
2018-06-07T22:24:18.566Z,17.87
2018-06-07T22:26:47.407Z,14.90
2018-06-07T22:29:16.131Z,18.97
2018-06-07T22:31:44.894Z,19.90
2018-06-07T22:34:13.453Z,16.13
2018-06-07T22:36:42.235Z,18.37
2018-06-07T22:39:10.784Z,16.40
2018-06-07T22:41:39.245Z,19.63
2018-06-07T22:44:07.747Z,18.30
2018-06-07T22:46:36.262Z,15.13
2018-06-07T22:49:04.788Z,17.20
2018-06-07T22:51:33.299Z,15.30
2018-06-07T22:54:01.810Z,15.13
2018-06-07T22:56:30.305Z,15.10
2018-06-07T22:58:58.518Z,15.40
2018-06-07T23:01:27.020Z,11.43
2018-06-07T23:03:55.602Z,11.87
2018-06-07T23:06:24.166Z,10.37
2018-06-07T23:08:52.689Z,10.13
2018-06-07T23:11:21.162Z,10.07
2018-06-07T23:13:49.741Z,9.40
2018-06-07T23:16:18.189Z,10.13
2018-06-07T23:18:46.705Z,9.37
2018-06-07T23:21:15.169Z,11.93
2018-06-07T23:23:43.881Z,12.20
2018-06-07T23:26:12.042Z,8.77
2018-06-07T23:28:40.494Z,10.27
2018-06-07T23:31:09.007Z,9.53
2018-06-07T23:33:37.529Z,11.03
2018-06-07T23:36:06.207Z,11.47
2018-06-07T23:38:34.932Z,10.87
2018-06-07T23:41:03.494Z,11.40
2018-06-07T23:43:32.002Z,10.30
2018-06-07T23:46:00.554Z,11.40
2018-06-07T23:48:29.081Z,10.77
2018-06-07T23:50:57.593Z,11.93
2018-06-07T23:53:26.153Z,11.93
2018-06-07T23:55:54.695Z,13.70
2018-06-07T23:58:23.177Z,16.30
